createdAt,value
2023-03-07T00:03:57.861Z,4.08373
2023-03-07T00:08:59.672Z,4.10151
2023-03-07T00:14:01.458Z,4.04498
2023-03-07T00:19:03.077Z,3.70264
2023-03-07T00:24:04.733Z,3.50034
2023-03-07T00:29:06.380Z,3.57338
2023-03-07T00:34:08.194Z,3.40507
2023-03-07T00:39:09.808Z,3.03383
2023-03-07T00:44:11.626Z,2.78866
2023-03-07T00:49:13.508Z,2.4352
2023-03-07T00:54:15.366Z,2.40789
2023-03-07T00:59:16.980Z,2.34406
2023-03-07T01:04:18.625Z,1.73083
2023-03-07T01:09:20.233Z,1.83245
2023-03-07T01:14:21.881Z,1.77434
2023-03-07T01:19:23.643Z,2.00934
2023-03-07T01:24:25.299Z,1.72385
2023-03-07T01:29:26.956Z,0.63174
2023-03-07T01:34:28.571Z,0.10839
2023-03-07T01:39:30.148Z,-0.10438
2023-03-07T01:44:31.832Z,-0.10279
2023-03-07T01:49:33.517Z,-0.2206
2023-03-07T01:54:35.132Z,-0.86684
2023-03-07T01:59:36.780Z,-0.48767
2023-03-07T02:04:38.474Z,-0.03134
2023-03-07T02:09:40.125Z,-0.76141
2023-03-07T02:14:41.742Z,-0.74617
2023-03-07T02:19:43.476Z,-0.77919
2023-03-07T02:24:45.069Z,-0.26252
2023-03-07T02:29:47.138Z,-0.47465
2023-03-07T02:34:49.405Z,-0.60263
2023-03-07T02:39:51.490Z,-0.50736
2023-03-07T02:44:53.704Z,-0.16249
2023-03-07T02:49:55.850Z,-0.79189
2023-03-07T02:54:58.027Z,-1.22854
2023-03-07T03:00:00.395Z,-0.88113
2023-03-07T03:05:02.734Z,-1.20694
2023-03-07T03:10:04.970Z,-0.78999
2023-03-07T03:15:06.864Z,-1.29777
2023-03-07T03:20:08.571Z,-1.83094
2023-03-07T03:25:10.582Z,-1.34445
2023-03-07T03:30:12.974Z,-1.06881
2023-03-07T03:35:15.305Z,-1.65851
2023-03-07T03:40:17.731Z,-1.53847
2023-03-07T03:45:19.894Z,-1.15868
2023-03-07T03:50:22.147Z,-1.4629
2023-03-07T03:55:24.327Z,-0.90812
2023-03-07T04:00:26.470Z,-0.83254
2023-03-07T04:05:28.726Z,-1.69789
2023-03-07T04:10:30.809Z,-1.00911
2023-03-07T04:15:33.073Z,-1.46258
2023-03-07T04:20:35.216Z,-1.08754
2023-03-07T04:25:38.226Z,-1.23013
2023-03-07T04:30:40.239Z,-0.61089
2023-03-07T04:35:42.213Z,-1.40669
2023-03-07T04:40:44.172Z,-0.41908
2023-03-07T04:45:45.904Z,-0.9005
2023-03-07T04:50:47.615Z,-0.42067
2023-03-07T04:55:49.238Z,-0.59406
2023-03-07T05:00:50.889Z,-1.48893
2023-03-07T05:05:52.527Z,-0.70171
2023-03-07T05:10:54.172Z,-0.70996
2023-03-07T05:15:55.748Z,-0.85826
2023-03-07T05:20:57.489Z,-0.85826
2023-03-07T05:25:59.165Z,-0.56833
2023-03-07T05:31:00.770Z,-0.72425
2023-03-07T05:36:02.505Z,-1.09135
2023-03-07T05:41:04.155Z,-0.4556
2023-03-07T05:46:05.855Z,-1.02085
2023-03-07T05:51:07.446Z,-1.02149
2023-03-07T05:56:09.083Z,-0.82143
2023-03-07T06:01:10.673Z,-0.86652
2023-03-07T06:06:12.582Z,-0.82429
2023-03-07T06:11:14.183Z,-0.78078
2023-03-07T06:16:15.856Z,-1.55054
2023-03-07T06:21:17.525Z,-0.94369
2023-03-07T06:26:19.198Z,-0.94083
2023-03-07T06:31:20.918Z,-0.85636
2023-03-07T06:36:22.573Z,-1.02943
2023-03-07T06:41:24.257Z,-0.9729
2023-03-07T06:46:25.919Z,-0.82683
2023-03-07T06:51:27.563Z,-1.15931
2023-03-07T06:56:29.186Z,-1.37112
2023-03-07T07:01:30.883Z,-1.7306
2023-03-07T07:06:32.509Z,-1.7614
2023-03-07T07:11:34.142Z,-1.65089
2023-03-07T07:16:35.780Z,-1.72678
2023-03-07T07:21:37.529Z,-2.2082
2023-03-07T07:26:39.161Z,-3.18563
2023-03-07T07:31:40.945Z,-4.01665
2023-03-07T07:36:42.856Z,-2.11166
2023-03-07T07:41:44.495Z,-1.94399
2023-03-07T07:46:46.127Z,-1.70456
2023-03-07T07:51:47.736Z,-0.84556
2023-03-07T07:56:49.494Z,-0.61279
2023-03-07T08:01:51.198Z,-0.74744
2023-03-07T08:06:52.778Z,-1.52863
2023-03-07T08:11:54.505Z,-1.34064
2023-03-07T08:16:56.139Z,-0.81635
2023-03-07T08:21:57.884Z,-0.99577
2023-03-07T08:26:59.523Z,-0.73982
2023-03-07T08:32:01.175Z,-1.22822
2023-03-07T08:37:02.855Z,-1.66232
2023-03-07T08:42:04.673Z,-1.77664
2023-03-07T08:47:06.340Z,-0.91416
2023-03-07T08:52:07.985Z,-1.32126
2023-03-07T08:57:09.616Z,-1.00339
2023-03-07T09:02:11.287Z,-0.88812
2023-03-07T09:07:13.187Z,-1.46258
2023-03-07T09:12:15.028Z,-1.17074
2023-03-07T09:17:16.631Z,-0.74267
2023-03-07T09:22:18.340Z,-0.46544
2023-03-07T09:27:19.965Z,-0.62232
2023-03-07T09:32:21.528Z,-0.65249
2023-03-07T09:37:23.223Z,-0.85477
2023-03-07T09:42:24.869Z,-0.76173
2023-03-07T09:47:26.490Z,-0.87128
2023-03-07T09:52:28.279Z,-0.97259
2023-03-07T09:57:29.905Z,-0.68265
2023-03-07T10:02:31.551Z,-0.65344
2023-03-07T10:07:33.297Z,-0.78173
2023-03-07T10:12:34.879Z,-1.89541
2023-03-07T10:17:36.570Z,-1.24918
2023-03-07T10:22:38.217Z,-1.16915
2023-03-07T10:27:39.873Z,-1.2568
2023-03-07T10:32:41.567Z,-1.25807
2023-03-07T10:37:43.220Z,-0.83413
2023-03-07T10:42:44.857Z,-0.82683
2023-03-07T10:47:46.558Z,-2.28949
2023-03-07T10:52:48.217Z,-1.16312
2023-03-07T10:57:49.843Z,-1.74679
2023-03-07T11:02:51.513Z,-1.2152
2023-03-07T11:07:53.387Z,-1.26919
2023-03-07T11:12:55.238Z,-1.28189
2023-03-07T11:17:56.977Z,-2.04942
2023-03-07T11:22:58.894Z,-1.92049
2023-03-07T11:28:00.551Z,-2.19645
2023-03-07T11:33:02.242Z,-3.41807
2023-03-07T11:38:03.930Z,-3.89694
2023-03-07T11:43:05.528Z,-3.59908
2023-03-07T11:48:07.280Z,-3.69942
2023-03-07T11:53:08.901Z,-3.76452
2023-03-07T11:58:10.555Z,-3.6864
2023-03-07T12:03:12.161Z,-3.0494
2023-03-07T12:08:13.800Z,-3.38536
2023-03-07T12:13:15.386Z,-4.10239
2023-03-07T12:18:16.994Z,-3.65084
2023-03-07T12:23:18.665Z,-3.18975
2023-03-07T12:28:20.997Z,-2.4886
2023-03-07T12:33:23.185Z,-2.50606
2023-03-07T12:38:25.880Z,-2.66039
2023-03-07T12:43:27.592Z,-2.71882
2023-03-07T12:48:29.272Z,-3.04304
2023-03-07T12:53:30.875Z,-3.11195
2023-03-07T12:58:32.532Z,-2.75026
2023-03-07T13:03:34.171Z,-2.08499
2023-03-07T13:08:35.797Z,-1.65311
2023-03-07T13:13:37.427Z,-1.74743
2023-03-07T13:18:39.149Z,-1.71662
2023-03-07T13:23:41.028Z,-1.42415
2023-03-07T13:28:42.777Z,-1.84238
2023-03-07T13:33:44.390Z,-1.65152
2023-03-07T13:38:46.053Z,-1.83602
2023-03-07T13:43:48.057Z,-2.01258
2023-03-07T13:48:49.698Z,-1.50672
2023-03-07T13:53:51.315Z,-1.8881
2023-03-07T13:58:53.109Z,-1.68868
2023-03-07T14:03:54.764Z,-1.91764
2023-03-07T14:08:56.463Z,-1.55403
2023-03-07T14:13:58.212Z,-1.55403
2023-03-07T14:18:59.805Z,-1.82713
2023-03-07T14:24:01.456Z,-1.85825
2023-03-07T14:29:03.135Z,-1.63723
2023-03-07T14:34:04.795Z,-2.34475
2023-03-07T14:39:06.396Z,-1.91859
2023-03-07T14:44:08.031Z,-1.9659
2023-03-07T14:49:09.790Z,-1.64422
2023-03-07T14:54:11.453Z,-1.54927
2023-03-07T14:59:26.113Z,-1.67217
2023-03-07T15:04:29.638Z,-1.53466
2023-03-07T15:09:31.322Z,-1.4159
2023-03-07T15:14:33.042Z,-1.51307
2023-03-07T15:19:34.647Z,-1.49529
2023-03-07T15:24:36.249Z,-1.30158
2023-03-07T15:29:37.895Z,-0.99799
2023-03-07T15:34:39.514Z,-0.75252
2023-03-07T15:39:41.211Z,-0.98624
2023-03-07T15:44:42.849Z,-1.05896
2023-03-07T15:49:44.620Z,-1.07833
2023-03-07T15:54:46.332Z,-1.18916
2023-03-07T15:59:47.982Z,-1.22314
2023-03-07T16:04:49.626Z,-1.31491
2023-03-07T16:09:51.272Z,-0.7106
2023-03-07T16:14:52.968Z,0.24494
2023-03-07T16:19:54.619Z,-0.68234
2023-03-07T16:24:56.242Z,-0.54515
2023-03-07T16:29:57.889Z,-0.03451
2023-03-07T16:34:59.495Z,0.90389
2023-03-07T16:40:01.404Z,1.16366
2023-03-07T16:45:03.113Z,1.31799
2023-03-07T16:50:04.724Z,1.36531
2023-03-07T16:55:06.330Z,0.69017
2023-03-07T17:00:08.015Z,0.55139
2023-03-07T17:05:09.641Z,-0.00752
2023-03-07T17:10:11.233Z,0.05726
2023-03-07T17:15:12.893Z,0.99439
2023-03-07T17:20:14.546Z,0.93056
2023-03-07T17:25:16.162Z,0.10585
2023-03-07T17:30:17.804Z,0.57902
2023-03-07T17:35:19.513Z,0.59998
2023-03-07T17:40:21.420Z,1.23733
2023-03-07T17:45:23.128Z,1.55458
2023-03-07T17:50:24.763Z,1.52727
2023-03-07T17:55:26.401Z,1.49456
2023-03-07T18:00:28.132Z,1.77085
2023-03-07T18:05:29.824Z,1.79022
2023-03-07T18:10:31.489Z,2.18845
2023-03-07T18:15:33.242Z,1.62
2023-03-07T18:20:34.825Z,1.41993
2023-03-07T18:25:36.473Z,1.31545
2023-03-07T18:30:38.117Z,1.84198
2023-03-07T18:35:39.815Z,1.8839
2023-03-07T18:40:41.655Z,2.77627
2023-03-07T18:45:43.299Z,3.17134
2023-03-07T18:50:44.917Z,2.89124
2023-03-07T18:55:46.600Z,1.5025
2023-03-07T19:00:48.312Z,2.11382
2023-03-07T19:05:49.912Z,2.42726
2023-03-07T19:10:51.527Z,2.26689
2023-03-07T19:15:53.198Z,2.44568
2023-03-07T19:20:54.830Z,3.11481
2023-03-07T19:25:56.448Z,3.59307
2023-03-07T19:30:58.102Z,4.94564
2023-03-07T19:35:59.799Z,4.53755
2023-03-07T19:41:01.495Z,5.19303
2023-03-07T19:46:03.351Z,4.7119
2023-03-07T19:51:05.082Z,4.37431
2023-03-07T19:56:06.771Z,4.46768
2023-03-07T20:01:08.607Z,4.22791
2023-03-07T20:06:10.373Z,4.18567
2023-03-07T20:11:12.038Z,4.64965
2023-03-07T20:16:13.981Z,3.87127
2023-03-07T20:21:15.662Z,4.04244
2023-03-07T20:26:17.325Z,5.22701
2023-03-07T20:31:19.063Z,4.7716
2023-03-07T20:36:20.734Z,5.13174
2023-03-07T20:41:22.402Z,5.68497
2023-03-07T20:46:24.043Z,4.29492
2023-03-07T20:51:25.789Z,4.28539
2023-03-07T20:56:27.520Z,4.81257
2023-03-07T21:01:29.194Z,3.77981
2023-03-07T21:06:30.901Z,4.58455
2023-03-07T21:11:32.657Z,4.62774
2023-03-07T21:16:34.356Z,4.75223
2023-03-07T21:21:35.994Z,4.05483
2023-03-07T21:26:37.597Z,3.98782
2023-03-07T21:31:39.343Z,4.69157
2023-03-07T21:36:41.032Z,5.61605
2023-03-07T21:41:42.710Z,6.05622
2023-03-07T21:46:44.367Z,5.30133
2023-03-07T21:51:46.199Z,5.60621
2023-03-07T21:56:47.863Z,6.26995
2023-03-07T22:01:49.795Z,5.14158
2023-03-07T22:06:51.430Z,5.01804
2023-03-07T22:11:53.144Z,5.56365
2023-03-07T22:16:54.863Z,4.50992
2023-03-07T22:21:56.537Z,5.01106
2023-03-07T22:26:58.385Z,5.47981
2023-03-07T22:32:00.424Z,5.5519
2023-03-07T22:37:02.278Z,5.44233
2023-03-07T22:42:04.809Z,5.11713
2023-03-07T22:47:06.641Z,5.20955
2023-03-07T22:52:08.318Z,4.87545
2023-03-07T22:57:09.932Z,4.7932
2023-03-07T23:02:11.537Z,5.25305
2023-03-07T23:07:13.156Z,5.29942
2023-03-07T23:12:14.800Z,5.27878
2023-03-07T23:17:16.484Z,5.17874
2023-03-07T23:22:18.112Z,5.03138
2023-03-07T23:27:19.742Z,4.91705
2023-03-07T23:32:21.494Z,4.28317
2023-03-07T23:37:23.182Z,4.13486
2023-03-07T23:42:25.016Z,4.65823
2023-03-07T23:47:26.655Z,4.39527
2023-03-07T23:52:28.311Z,4.50642
2023-03-07T23:57:29.848Z,4.91451
